sensor_id;sensor_type;location;lat;lon;timestamp;pressure;altitude;pressure_sealevel;temperature;humidity
64758;BME280;51193;45.588;5.376;2022-09-09T07:00:32;96275.41;;;18.73;nan
64758;BME280;51193;45.588;5.376;2022-09-09T07:03:14;96287.69;;;18.74;nan
64758;BME280;51193;45.588;5.376;2022-09-09T07:11:24;96287.69;;;18.74;nan
64758;BME280;51193;45.588;5.376;2022-09-09T07:13:59;96290.25;;;18.75;nan
64758;BME280;51193;45.588;5.376;2022-09-09T07:16:27;96292.63;;;18.80;nan
64758;BME280;51193;45.588;5.376;2022-09-09T07:24:19;96291.44;;;18.98;nan
64758;BME280;51193;45.588;5.376;2022-09-09T07:43:34;96296.44;;;19.43;nan
64758;BME280;51193;45.588;5.376;2022-09-09T07:46:43;96294.31;;;19.48;nan
64758;BME280;51193;45.588;5.376;2022-09-09T07:49:17;96294.78;;;19.55;nan
64758;BME280;51193;45.588;5.376;2022-09-09T07:52:00;96292.97;;;19.55;nan
64758;BME280;51193;45.588;5.376;2022-09-09T07:54:49;96301.44;;;19.60;nan
64758;BME280;51193;45.588;5.376;2022-09-09T07:57:25;96300.00;;;19.69;nan
64758;BME280;51193;45.588;5.376;2022-09-09T08:03:25;96309.81;;;19.94;nan
64758;BME280;51193;45.588;5.376;2022-09-09T08:06:00;96316.69;;;20.09;nan
64758;BME280;51193;45.588;5.376;2022-09-09T09:28:59;96352.03;;;22.64;nan
64758;BME280;51193;45.588;5.376;2022-09-09T09:47:30;96335.00;;;23.33;nan
64758;BME280;51193;45.588;5.376;2022-09-09T09:50:17;96332.47;;;23.52;nan
64758;BME280;51193;45.588;5.376;2022-09-09T09:55:44;96343.16;;;23.20;nan
64758;BME280;51193;45.588;5.376;2022-09-09T09:58:31;96340.63;;;23.07;nan
64758;BME280;51193;45.588;5.376;2022-09-09T10:04:37;96332.84;;;23.59;nan
64758;BME280;51193;45.588;5.376;2022-09-09T10:07:15;96344.34;;;23.59;nan
64758;BME280;51193;45.588;5.376;2022-09-09T10:09:42;96327.34;;;23.60;nan
64758;BME280;51193;45.588;5.376;2022-09-09T10:26:12;96323.22;;;24.52;nan
64758;BME280;51193;45.588;5.376;2022-09-09T10:33:43;96319.88;;;24.69;nan
64758;BME280;51193;45.588;5.376;2022-09-09T10:36:13;96325.47;;;24.56;nan
64758;BME280;51193;45.588;5.376;2022-09-09T10:38:54;96333.09;;;24.61;nan
64758;BME280;51193;45.588;5.376;2022-09-09T10:41:31;96332.47;;;24.78;nan
64758;BME280;51193;45.588;5.376;2022-09-09T10:51:40;96320.50;;;24.82;nan
64758;BME280;51193;45.588;5.376;2022-09-09T10:56:35;96311.59;;;25.13;nan
64758;BME280;51193;45.588;5.376;2022-09-09T11:04:01;96314.59;;;25.48;nan
64758;BME280;51193;45.588;5.376;2022-09-09T11:06:36;96316.72;;;25.74;nan
64758;BME280;51193;45.588;5.376;2022-09-09T11:09:02;96318.66;;;25.82;nan
64758;BME280;51193;45.588;5.376;2022-09-09T11:11:37;96312.75;;;25.98;nan
64758;BME280;51193;45.588;5.376;2022-09-09T11:17:15;96312.47;;;25.72;nan
64758;BME280;51193;45.588;5.376;2022-09-09T11:19:42;96315.03;;;25.54;nan
64758;BME280;51193;45.588;5.376;2022-09-09T11:40:25;96312.25;;;26.79;nan
64758;BME280;51193;45.588;5.376;2022-09-09T11:43:02;96325.91;;;26.85;nan
64758;BME280;51193;45.588;5.376;2022-09-09T11:45:29;96319.41;;;26.60;nan
64758;BME280;51193;45.588;5.376;2022-09-09T11:47:56;96323.75;;;26.61;nan
64758;BME280;51193;45.588;5.376;2022-09-09T11:52:48;96318.66;;;26.96;nan
64758;BME280;51193;45.588;5.376;2022-09-09T11:55:25;96317.59;;;27.06;nan
64758;BME280;51193;45.588;5.376;2022-09-09T11:57:58;96323.28;;;27.31;nan
64758;BME280;51193;45.588;5.376;2022-09-09T12:03:31;96323.66;;;27.54;nan
64758;BME280;51193;45.588;5.376;2022-09-09T12:05:51;96318.69;;;27.41;nan
64758;BME280;51193;45.588;5.376;2022-09-09T12:08:22;96325.59;;;27.16;nan
64758;BME280;51193;45.588;5.376;2022-09-09T12:10:55;96320.41;;;26.87;nan
64758;BME280;51193;45.588;5.376;2022-09-09T12:13:22;96313.25;;;26.78;nan
64758;BME280;51193;45.588;5.376;2022-09-09T12:15:52;96308.81;;;26.86;nan
64758;BME280;51193;45.588;5.376;2022-09-09T12:18:39;96305.84;;;26.89;nan
64758;BME280;51193;45.588;5.376;2022-09-09T12:31:26;96306.63;;;27.63;nan
64758;BME280;51193;45.588;5.376;2022-09-09T12:33:55;96300.19;;;27.74;nan
64758;BME280;51193;45.588;5.376;2022-09-09T12:36:28;96291.56;;;27.70;nan
64758;BME280;51193;45.588;5.376;2022-09-09T12:38:55;96295.91;;;27.63;nan
64758;BME280;51193;45.588;5.376;2022-09-09T12:41:24;96291.75;;;27.69;nan
64758;BME280;51193;45.588;5.376;2022-09-09T12:43:50;96293.75;;;27.67;nan
64758;BME280;51193;45.588;5.376;2022-09-09T12:46:58;96290.66;;;27.62;nan
64758;BME280;51193;45.588;5.376;2022-09-09T12:49:04;96303.88;;;27.55;nan
64758;BME280;51193;45.588;5.376;2022-09-09T12:51:30;96284.53;;;27.69;nan
64758;BME280;51193;45.588;5.376;2022-09-09T12:53:56;96290.50;;;27.81;nan
64758;BME280;51193;45.588;5.376;2022-09-09T12:56:22;96287.34;;;28.04;nan
64758;BME280;51193;45.588;5.376;2022-09-09T12:58:51;96278.81;;;28.08;nan
64758;BME280;51193;45.588;5.376;2022-09-09T13:01:24;96282.28;;;28.01;nan
64758;BME280;51193;45.588;5.376;2022-09-09T13:03:49;96280.75;;;27.98;nan
64758;BME280;51193;45.588;5.376;2022-09-09T13:06:25;96278.00;;;27.72;nan
64758;BME280;51193;45.588;5.376;2022-09-09T13:08:54;96270.25;;;27.87;nan
64758;BME280;51193;45.588;5.376;2022-09-09T13:11:24;96277.59;;;28.03;nan
64758;BME280;51193;45.588;5.376;2022-09-09T13:13:54;96267.88;;;27.48;nan
64758;BME280;51193;45.588;5.376;2022-09-09T13:16:31;96272.19;;;27.41;nan
64758;BME280;51193;45.588;5.376;2022-09-09T13:19:07;96272.03;;;27.42;nan
64758;BME280;51193;45.588;5.376;2022-09-09T13:21:34;96268.19;;;27.45;nan
64758;BME280;51193;45.588;5.376;2022-09-09T13:24:00;96264.97;;;27.41;nan
64758;BME280;51193;45.588;5.376;2022-09-09T13:26:28;96274.81;;;27.33;nan
64758;BME280;51193;45.588;5.376;2022-09-09T13:28:55;96279.50;;;27.21;nan
64758;BME280;51193;45.588;5.376;2022-09-09T13:31:33;96277.44;;;27.15;nan
64758;BME280;51193;45.588;5.376;2022-09-09T13:34:10;96279.84;;;27.36;nan
64758;BME280;51193;45.588;5.376;2022-09-09T13:36:35;96261.81;;;27.64;nan
64758;BME280;51193;45.588;5.376;2022-09-09T13:39:01;96272.25;;;27.67;nan
64758;BME280;51193;45.588;5.376;2022-09-09T13:41:32;96268.97;;;27.55;nan
64758;BME280;51193;45.588;5.376;2022-09-09T13:43:58;96269.50;;;27.41;nan
64758;BME280;51193;45.588;5.376;2022-09-09T13:48:58;96264.47;;;27.10;nan
64758;BME280;51193;45.588;5.376;2022-09-09T13:51:45;96264.94;;;27.05;nan
64758;BME280;51193;45.588;5.376;2022-09-09T13:54:12;96261.47;;;27.13;nan
64758;BME280;51193;45.588;5.376;2022-09-09T13:56:38;96265.84;;;27.14;nan
64758;BME280;51193;45.588;5.376;2022-09-09T13:59:04;96261.56;;;27.03;nan
64758;BME280;51193;45.588;5.376;2022-09-09T14:01:30;96266.97;;;26.94;nan
64758;BME280;51193;45.588;5.376;2022-09-09T14:03:56;96260.22;;;26.89;nan
64758;BME280;51193;45.588;5.376;2022-09-09T14:06:21;96260.00;;;26.83;nan
64758;BME280;51193;45.588;5.376;2022-09-09T14:08:50;96258.75;;;26.77;nan
64758;BME280;51193;45.588;5.376;2022-09-09T14:11:15;96263.41;;;26.75;nan
64758;BME280;51193;45.588;5.376;2022-09-09T14:13:41;96259.25;;;26.63;nan
64758;BME280;51193;45.588;5.376;2022-09-09T14:16:06;96256.81;;;26.32;nan
64758;BME280;51193;45.588;5.376;2022-09-09T14:18:31;96258.00;;;26.20;nan
64758;BME280;51193;45.588;5.376;2022-09-09T14:20:57;96249.41;;;26.06;nan
64758;BME280;51193;45.588;5.376;2022-09-09T14:23:23;96243.66;;;26.01;nan
64758;BME280;51193;45.588;5.376;2022-09-09T14:25:49;96244.94;;;25.97;nan
64758;BME280;51193;45.588;5.376;2022-09-09T14:28:14;96245.38;;;25.93;nan
64758;BME280;51193;45.588;5.376;2022-09-09T14:30:40;96242.84;;;25.91;nan
64758;BME280;51193;45.588;5.376;2022-09-09T14:33:06;96238.06;;;25.95;nan
64758;BME280;51193;45.588;5.376;2022-09-09T14:35:31;96252.41;;;26.03;nan
64758;BME280;51193;45.588;5.376;2022-09-09T14:37:58;96249.84;;;26.02;nan
64758;BME280;51193;45.588;5.376;2022-09-09T14:40:23;96247.31;;;26.00;nan
64758;BME280;51193;45.588;5.376;2022-09-09T14:42:49;96240.88;;;25.93;nan
64758;BME280;51193;45.588;5.376;2022-09-09T14:45:14;96248.44;;;25.88;nan
64758;BME280;51193;45.588;5.376;2022-09-09T14:47:39;96254.69;;;25.79;nan
64758;BME280;51193;45.588;5.376;2022-09-09T14:50:05;96239.50;;;25.60;nan
64758;BME280;51193;45.588;5.376;2022-09-09T14:52:31;96236.69;;;25.52;nan
64758;BME280;51193;45.588;5.376;2022-09-09T14:54:56;96232.44;;;25.49;nan
64758;BME280;51193;45.588;5.376;2022-09-09T14:57:22;96240.63;;;25.47;nan
64758;BME280;51193;45.588;5.376;2022-09-09T14:59:47;96239.22;;;25.43;nan
64758;BME280;51193;45.588;5.376;2022-09-09T15:02:14;96244.16;;;25.48;nan
64758;BME280;51193;45.588;5.376;2022-09-09T15:04:40;96239.50;;;25.50;nan
64758;BME280;51193;45.588;5.376;2022-09-09T15:07:06;96235.81;;;25.51;nan
64758;BME280;51193;45.588;5.376;2022-09-09T15:09:31;96236.69;;;25.52;nan
64758;BME280;51193;45.588;5.376;2022-09-09T15:11:56;96230.75;;;25.48;nan
64758;BME280;51193;45.588;5.376;2022-09-09T15:14:21;96225.84;;;25.34;nan
64758;BME280;51193;45.588;5.376;2022-09-09T15:16:47;96236.69;;;25.32;nan
64758;BME280;51193;45.588;5.376;2022-09-09T15:19:12;96231.63;;;25.29;nan
64758;BME280;51193;45.588;5.376;2022-09-09T15:21:37;96227.81;;;25.22;nan
64758;BME280;51193;45.588;5.376;2022-09-09T15:24:03;96226.81;;;25.13;nan
64758;BME280;51193;45.588;5.376;2022-09-09T15:26:29;96222.97;;;25.06;nan
64758;BME280;51193;45.588;5.376;2022-09-09T15:28:55;96224.94;;;25.04;nan
64758;BME280;51193;45.588;5.376;2022-09-09T15:31:21;96219.19;;;25.18;nan
64758;BME280;51193;45.588;5.376;2022-09-09T15:33:50;96215.72;;;25.27;nan
64758;BME280;51193;45.588;5.376;2022-09-09T15:36:17;96219.78;;;25.32;nan
64758;BME280;51193;45.588;5.376;2022-09-09T15:38:43;96220.31;;;25.45;nan
64758;BME280;51193;45.588;5.376;2022-09-09T15:41:09;96222.88;;;25.56;nan
64758;BME280;51193;45.588;5.376;2022-09-09T15:43:34;96212.72;;;25.60;nan
64758;BME280;51193;45.588;5.376;2022-09-09T15:46:02;96214.41;;;25.51;nan
64758;BME280;51193;45.588;5.376;2022-09-09T15:48:30;96218.34;;;25.47;nan
64758;BME280;51193;45.588;5.376;2022-09-09T15:51:02;96216.69;;;25.46;nan
64758;BME280;51193;45.588;5.376;2022-09-09T15:53:28;96213.28;;;25.44;nan
64758;BME280;51193;45.588;5.376;2022-09-09T15:55:55;96207.50;;;25.39;nan
64758;BME280;51193;45.588;5.376;2022-09-09T15:58:20;96205.41;;;25.33;nan
64758;BME280;51193;45.588;5.376;2022-09-09T16:00:46;96204.56;;;25.32;nan
64758;BME280;51193;45.588;5.376;2022-09-09T16:03:11;96206.81;;;25.37;nan
64758;BME280;51193;45.588;5.376;2022-09-09T16:05:37;96207.38;;;25.40;nan
64758;BME280;51193;45.588;5.376;2022-09-09T16:08:03;96199.91;;;25.44;nan
64758;BME280;51193;45.588;5.376;2022-09-09T16:10:29;96204.25;;;25.45;nan
64758;BME280;51193;45.588;5.376;2022-09-09T16:12:55;96208.22;;;25.50;nan
64758;BME280;51193;45.588;5.376;2022-09-09T16:15:21;96199.34;;;25.50;nan
64758;BME280;51193;45.588;5.376;2022-09-09T16:17:48;96206.53;;;25.49;nan
64758;BME280;51193;45.588;5.376;2022-09-09T16:20:13;96204.25;;;25.45;nan
64758;BME280;51193;45.588;5.376;2022-09-09T16:22:39;96199.22;;;25.42;nan
64758;BME280;51193;45.588;5.376;2022-09-09T16:25:05;96195.84;;;25.40;nan
64758;BME280;51193;45.588;5.376;2022-09-09T16:27:30;96202.47;;;25.36;nan
64758;BME280;51193;45.588;5.376;2022-09-09T16:29:56;96209.09;;;25.32;nan
64758;BME280;51193;45.588;5.376;2022-09-09T16:32:22;96203.16;;;25.28;nan
64758;BME280;51193;45.588;5.376;2022-09-09T16:34:47;96199.91;;;25.24;nan
64758;BME280;51193;45.588;5.376;2022-09-09T16:37:12;96209.06;;;25.22;nan
64758;BME280;51193;45.588;5.376;2022-09-09T16:39:38;96202.28;;;25.18;nan
64758;BME280;51193;45.588;5.376;2022-09-09T16:42:03;96207.94;;;25.15;nan
64758;BME280;51193;45.588;5.376;2022-09-09T16:44:29;96197.09;;;25.06;nan
64758;BME280;51193;45.588;5.376;2022-09-09T16:46:55;96195.69;;;25.02;nan
64758;BME280;51193;45.588;5.376;2022-09-09T16:49:20;96202.44;;;24.97;nan
64758;BME280;51193;45.588;5.376;2022-09-09T16:51:49;96204.53;;;24.93;nan
64758;BME280;51193;45.588;5.376;2022-09-09T16:54:18;96208.47;;;24.89;nan
64758;BME280;51193;45.588;5.376;2022-09-09T16:56:44;96203.41;;;24.86;nan
64758;BME280;51193;45.588;5.376;2022-09-09T16:59:17;96208.19;;;24.82;nan
64758;BME280;51193;45.588;5.376;2022-09-09T17:01:44;96201.69;;;24.75;nan
64758;BME280;51193;45.588;5.376;2022-09-09T17:04:11;96204.66;;;24.72;nan
64758;BME280;51193;45.588;5.376;2022-09-09T17:06:38;96202.25;;;24.69;nan
64758;BME280;51193;45.588;5.376;2022-09-09T17:09:06;96204.50;;;24.64;nan
64758;BME280;51193;45.588;5.376;2022-09-09T17:11:32;96209.13;;;24.62;nan
64758;BME280;51193;45.588;5.376;2022-09-09T17:13:58;96217.41;;;24.59;nan
64758;BME280;51193;45.588;5.376;2022-09-09T17:16:24;96216.16;;;24.53;nan
64758;BME280;51193;45.588;5.376;2022-09-09T17:18:50;96214.84;;;24.47;nan
64758;BME280;51193;45.588;5.376;2022-09-09T17:21:17;96220.44;;;24.44;nan
64758;BME280;51193;45.588;5.376;2022-09-09T17:23:43;96216.34;;;24.40;nan
64758;BME280;51193;45.588;5.376;2022-09-09T17:26:09;96215.22;;;24.33;nan
64758;BME280;51193;45.588;5.376;2022-09-09T17:28:36;96214.50;;;24.31;nan
64758;BME280;51193;45.588;5.376;2022-09-09T17:31:04;96209.28;;;24.29;nan
64758;BME280;51193;45.588;5.376;2022-09-09T17:33:32;96220.09;;;24.28;nan
64758;BME280;51193;45.588;5.376;2022-09-09T17:35:58;96209.00;;;24.23;nan
64758;BME280;51193;45.588;5.376;2022-09-09T17:38:24;96215.59;;;24.19;nan
64758;BME280;51193;45.588;5.376;2022-09-09T17:40:50;96215.28;;;24.12;nan
64758;BME280;51193;45.588;5.376;2022-09-09T17:43:25;96198.75;;;23.97;nan
64758;BME280;51193;45.588;5.376;2022-09-09T17:46:26;96214.78;;;23.97;nan
64758;BME280;51193;45.588;5.376;2022-09-09T17:48:43;96218.97;;;23.90;nan
64758;BME280;51193;45.588;5.376;2022-09-09T17:51:13;96224.00;;;23.83;nan
64758;BME280;51193;45.588;5.376;2022-09-09T17:53:41;96223.06;;;23.73;nan
64758;BME280;51193;45.588;5.376;2022-09-09T17:56:16;96216.53;;;23.66;nan
64758;BME280;51193;45.588;5.376;2022-09-09T17:59:21;96226.19;;;23.57;nan
64758;BME280;51193;45.588;5.376;2022-09-09T18:04:54;96230.22;;;23.52;nan
64758;BME280;51193;45.588;5.376;2022-09-09T18:07:27;96224.56;;;23.45;nan
64758;BME280;51193;45.588;5.376;2022-09-09T18:10:10;96228.34;;;23.42;nan
64758;BME280;51193;45.588;5.376;2022-09-09T18:13:00;96227.63;;;23.40;nan
64758;BME280;51193;45.588;5.376;2022-09-09T18:15:47;96237.44;;;23.40;nan
64758;BME280;51193;45.588;5.376;2022-09-09T18:18:12;96231.38;;;23.38;nan
64758;BME280;51193;45.588;5.376;2022-09-09T18:21:02;96232.38;;;23.37;nan
64758;BME280;51193;45.588;5.376;2022-09-09T18:23:47;96246.66;;;23.36;nan
64758;BME280;51193;45.588;5.376;2022-09-09T18:26:43;96242.44;;;23.33;nan
64758;BME280;51193;45.588;5.376;2022-09-09T18:32:31;96249.13;;;23.27;nan
64758;BME280;51193;45.588;5.376;2022-09-09T18:35:20;96259.97;;;23.26;nan
64758;BME280;51193;45.588;5.376;2022-09-09T18:38:06;96254.88;;;23.23;nan
64758;BME280;51193;45.588;5.376;2022-09-09T18:40:47;96256.81;;;23.21;nan
64758;BME280;51193;45.588;5.376;2022-09-09T18:43:41;96272.94;;;23.19;nan
64758;BME280;51193;45.588;5.376;2022-09-09T18:50:14;96304.16;;;23.07;nan
64758;BME280;51193;45.588;5.376;2022-09-09T18:59:00;96308.94;;;22.59;nan
64758;BME280;51193;45.588;5.376;2022-09-09T19:08:26;96384.06;;;21.82;nan
64758;BME280;51193;45.588;5.376;2022-09-09T19:11:22;96394.22;;;21.53;nan
64758;BME280;51193;45.588;5.376;2022-09-09T19:14:20;96407.72;;;21.25;nan
64758;BME280;51193;45.588;5.376;2022-09-09T19:19:58;96412.94;;;20.64;nan
64758;BME280;51193;45.588;5.376;2022-09-09T19:26:09;96416.19;;;20.42;nan
64758;BME280;51193;45.588;5.376;2022-09-09T19:32:08;96409.31;;;20.27;nan
64758;BME280;51193;45.588;5.376;2022-09-09T19:35:17;96426.31;;;20.37;nan
64758;BME280;51193;45.588;5.376;2022-09-09T19:37:47;96426.72;;;20.44;nan
64758;BME280;51193;45.588;5.376;2022-09-09T19:43:43;96434.03;;;20.40;nan
64758;BME280;51193;45.588;5.376;2022-09-09T19:46:34;96430.03;;;20.35;nan
64758;BME280;51193;45.588;5.376;2022-09-09T19:49:22;96443.50;;;20.32;nan
64758;BME280;51193;45.588;5.376;2022-09-09T20:08:45;96444.25;;;20.46;nan
64758;BME280;51193;45.588;5.376;2022-09-09T22:27:55;96473.09;;;19.58;nan
64758;BME280;51193;45.588;5.376;2022-09-09T23:24:52;96491.19;;;19.10;nan
